Time;durP1;ratioP1;P1;durP2;ratioP2;P2;SDS_P1;SDS_P2;PMS_P1;PMS_P2;Temp;Humidity;BMP_temperature;BMP_pressure;BME280_temperature;BME280_humidity;BME280_pressure;Samples;Min_cycle;Max_cycle;Signal;HPM_P1;HPM_P2
2022/11/14 00:03:33;;;;;;;39.50;17.70;;;;;6.00;96380.00;;;;8263700;28;20230;-77
2022/11/14 00:07:37;;;;;;;31.50;16.30;;;;;5.90;96368.00;;;;8264032;28;20273;-78
2022/11/14 00:11:40;;;;;;;31.47;15.77;;;;;5.90;96361.00;;;;8263820;28;20237;-78
2022/11/14 00:15:44;;;;;;;34.70;16.50;;;;;6.00;96372.00;;;;8263870;28;20223;-78
2022/11/14 00:20:18;;;;;;;32.53;16.10;;;;;6.00;96377.00;;;;8262808;28;20564;-79
2022/11/14 00:24:23;;;;;;;35.20;17.10;;;;;5.90;96381.00;;;;8263250;28;20265;-79
2022/11/14 00:28:26;;;;;;;44.07;20.07;;;;;5.90;96383.00;;;;8263204;28;20214;-78
2022/11/14 00:32:31;;;;;;;37.10;18.10;;;;;5.80;96393.00;;;;8263350;28;20269;-79
2022/11/14 00:36:34;;;;;;;42.17;20.47;;;;;5.70;96391.00;;;;8263010;28;20249;-79
2022/11/14 00:40:39;;;;;;;43.43;20.43;;;;;5.70;96379.00;;;;8263242;28;20226;-78
2022/11/14 00:44:42;;;;;;;41.30;19.87;;;;;5.60;96380.00;;;;8263279;28;20276;-78
2022/11/14 00:48:45;;;;;;;42.77;20.83;;;;;5.50;96385.00;;;;8263308;28;20230;-78
2022/11/14 00:52:48;;;;;;;44.73;18.83;;;;;5.50;96378.00;;;;8262628;28;20289;-78
2022/11/14 00:56:53;;;;;;;38.53;19.17;;;;;5.50;96377.00;;;;8262145;28;20226;-79
2022/11/14 01:00:56;;;;;;;44.00;21.00;;;;;5.50;96383.00;;;;8262330;28;20222;-79
2022/11/14 01:05:01;;;;;;;44.87;20.27;;;;;5.50;96370.00;;;;8262194;28;20254;-79
2022/11/14 01:09:04;;;;;;;50.73;22.03;;;;;5.50;96367.00;;;;8263051;28;20234;-79
2022/11/14 01:13:08;;;;;;;46.50;21.37;;;;;5.50;96368.00;;;;8263154;28;20249;-79
2022/11/14 01:17:11;;;;;;;43.67;19.13;;;;;5.40;96359.00;;;;8262933;28;20223;-78
2022/11/14 01:21:15;;;;;;;42.23;19.53;;;;;5.50;96357.00;;;;8262548;28;20285;-79
2022/11/14 01:25:51;;;;;;;41.77;19.73;;;;;5.50;96362.00;;;;8263120;28;20743;-78
2022/11/14 01:29:56;;;;;;;39.03;19.20;;;;;5.50;96348.00;;;;8261774;28;20261;-78
2022/11/14 01:33:59;;;;;;;37.40;18.03;;;;;5.50;96353.00;;;;8262723;28;20222;-78
2022/11/14 01:38:02;;;;;;;38.23;18.10;;;;;5.50;96343.00;;;;8269028;28;20738;-78
2022/11/14 01:42:36;;;;;;;38.97;18.20;;;;;5.50;96332.00;;;;8268970;28;20260;-79
2022/11/14 01:46:43;;;;;;;34.97;17.00;;;;;5.50;96335.00;;;;8268069;28;20667;-78
2022/11/14 01:50:46;;;;;;;35.03;17.47;;;;;5.50;96328.00;;;;8269307;28;20268;-78
2022/11/14 01:54:55;;;;;;;35.37;16.20;;;;;5.50;96329.00;;;;8268067;28;20219;-79
2022/11/14 01:59:02;;;;;;;29.27;15.40;;;;;5.50;96315.00;;;;8268206;28;20226;-79
2022/11/14 02:03:07;;;;;;;33.20;16.27;;;;;5.50;96316.00;;;;8268936;28;20226;-79
2022/11/14 02:07:13;;;;;;;31.13;15.73;;;;;5.50;96304.00;;;;8267670;28;20560;-79
2022/11/14 02:11:16;;;;;;;37.23;16.63;;;;;5.60;96307.00;;;;8267582;28;20292;-79
2022/11/14 02:15:54;;;;;;;31.97;16.10;;;;;5.60;96302.00;;;;8268446;28;20224;-78
2022/11/14 02:20:06;;;;;;;32.33;15.57;;;;;5.60;96308.00;;;;8267399;28;20222;-78
2022/11/14 02:24:10;;;;;;;27.73;14.70;;;;;5.60;96299.00;;;;8267370;28;20308;-79
2022/11/14 02:28:13;;;;;;;30.93;14.87;;;;;5.70;96299.00;;;;8267958;28;20238;-79
2022/11/14 02:32:47;;;;;;;30.77;15.10;;;;;5.70;96305.00;;;;8266927;28;20285;-80
2022/11/14 02:37:11;;;;;;;31.43;15.53;;;;;5.80;96310.00;;;;8266470;28;20226;-80
2022/11/14 02:41:15;;;;;;;28.53;13.90;;;;;5.80;96308.00;;;;8266669;28;20246;-80
2022/11/14 02:45:19;;;;;;;30.77;15.03;;;;;5.80;96303.00;;;;8266877;28;20241;-79
2022/11/14 02:49:22;;;;;;;27.63;14.17;;;;;5.80;96294.00;;;;8264843;28;20218;-80
2022/11/14 02:53:27;;;;;;;29.13;14.23;;;;;5.80;96300.00;;;;8267149;28;20218;-78
2022/11/14 02:57:30;;;;;;;23.80;13.00;;;;;5.80;96297.00;;;;8266173;28;20230;-78
2022/11/14 03:01:33;;;;;;;30.80;13.50;;;;;5.80;96287.00;;;;8266196;28;20222;-79
2022/11/14 03:05:36;;;;;;;29.40;13.90;;;;;5.90;96281.00;;;;8266731;28;20591;-78
2022/11/14 03:09:40;;;;;;;29.53;13.53;;;;;5.80;96266.00;;;;8266573;28;20229;-77
2022/11/14 03:14:14;;;;;;;30.90;15.13;;;;;5.80;96271.00;;;;8266183;28;20231;-79
2022/11/14 03:18:17;;;;;;;29.10;13.17;;;;;5.70;96276.00;;;;8265799;28;20240;-79
2022/11/14 03:22:20;;;;;;;30.17;15.67;;;;;5.70;96276.00;;;;8265388;28;20250;-79
2022/11/14 03:26:25;;;;;;;27.90;14.67;;;;;5.60;96282.00;;;;8265153;28;20219;-79
2022/11/14 03:30:28;;;;;;;26.40;14.63;;;;;5.50;96274.00;;;;8265180;28;20222;-79
2022/11/14 03:35:05;;;;;;;30.70;14.23;;;;;5.40;96279.00;;;;8264309;28;20219;-79
2022/11/14 03:39:08;;;;;;;29.30;14.10;;;;;5.30;96273.00;;;;8265212;28;20536;-79
2022/11/14 03:43:13;;;;;;;28.13;13.73;;;;;5.30;96279.00;;;;8265491;28;20226;-79
2022/11/14 03:47:16;;;;;;;26.20;13.90;;;;;5.30;96270.00;;;;8265163;28;20285;-79
2022/11/14 03:51:19;;;;;;;28.97;13.07;;;;;5.30;96285.00;;;;8264670;28;20227;-79
2022/11/14 03:55:22;;;;;;;27.00;13.40;;;;;5.40;96275.00;;;;8265232;28;20223;-79
2022/11/14 03:59:26;;;;;;;27.40;13.20;;;;;5.40;96271.00;;;;8263768;28;20225;-79
2022/11/14 04:04:00;;;;;;;24.43;12.93;;;;;5.40;96268.00;;;;8264234;28;20565;-79
2022/11/14 04:08:05;;;;;;;26.90;13.10;;;;;5.40;96269.00;;;;8262928;28;20218;-78
2022/11/14 04:12:38;;;;;;;25.00;12.57;;;;;5.30;96271.00;;;;8264325;28;20226;-77
2022/11/14 04:16:43;;;;;;;20.13;11.10;;;;;5.40;96277.00;;;;8263497;28;20227;-78
2022/11/14 04:20:46;;;;;;;24.13;12.30;;;;;5.40;96275.00;;;;8264958;28;20734;-78
2022/11/14 04:24:49;;;;;;;22.37;11.80;;;;;5.50;96283.00;;;;8262696;28;20281;-79
2022/11/14 04:28:52;;;;;;;20.83;10.83;;;;;5.60;96273.00;;;;8263131;28;20233;-78
2022/11/14 04:33:30;;;;;;;19.90;10.53;;;;;5.60;96267.00;;;;8261390;28;20221;-78
2022/11/14 04:38:04;;;;;;;20.20;10.63;;;;;5.60;96276.00;;;;8262463;28;20226;-79
2022/11/14 04:42:38;;;;;;;18.33;10.10;;;;;5.60;96281.00;;;;8262597;28;20273;-80
2022/11/14 04:47:15;;;;;;;19.33;10.13;;;;;5.60;96282.00;;;;8263182;28;20226;-78
2022/11/14 04:51:53;;;;;;;17.77;10.03;;;;;5.50;96288.00;;;;8261531;28;20227;-79
2022/11/14 04:56:28;;;;;;;20.13;9.87;;;;;5.50;96289.00;;;;8261812;28;20611;-77
2022/11/14 05:01:07;;;;;;;22.57;10.60;;;;;5.40;96294.00;;;;8263157;28;20285;-77
2022/11/14 05:05:41;;;;;;;18.73;10.10;;;;;5.40;96297.00;;;;8262578;28;20667;-78
2022/11/14 05:09:45;;;;;;;19.00;10.67;;;;;5.30;96305.00;;;;8261753;28;20664;-78
2022/11/14 05:14:20;;;;;;;20.40;9.83;;;;;5.30;96301.00;;;;8263254;28;20313;-77
2022/11/14 05:18:56;;;;;;;30.07;18.13;;;;;5.20;96296.00;;;;8261830;28;20237;-79
2022/11/14 05:23:33;;;;;;;19.53;11.17;;;;;5.00;96294.00;;;;8247502;28;20311;-80
2022/11/14 05:28:12;;;;;;;22.67;11.73;;;;;4.70;96286.00;;;;8259434;28;20249;-80
2022/11/14 05:32:45;;;;;;;25.33;11.40;;;;;4.50;96282.00;;;;8261810;28;20555;-80
2022/11/14 05:37:22;;;;;;;24.67;12.47;;;;;4.50;96292.00;;;;8262250;28;22055;-80
2022/11/14 05:41:59;;;;;;;26.30;13.13;;;;;4.40;96287.00;;;;8261864;28;20221;-79
2022/11/14 05:46:37;;;;;;;21.87;10.87;;;;;4.40;96279.00;;;;8259331;28;20285;-79
2022/11/14 05:51:12;;;;;;;23.47;11.40;;;;;4.50;96263.00;;;;8249933;28;20284;-80
2022/11/14 05:55:46;;;;;;;74.20;41.10;;;;;4.50;96279.00;;;;8261382;28;20225;-80
2022/11/14 06:00:23;;;;;;;29.23;15.93;;;;;4.70;96281.00;;;;8261308;28;20701;-79
2022/11/14 06:05:02;;;;;;;22.57;11.47;;;;;4.70;96283.00;;;;8262054;28;20265;-79
2022/11/14 06:09:36;;;;;;;26.00;11.83;;;;;4.60;96290.00;;;;8260317;28;20277;-79
2022/11/14 06:14:13;;;;;;;22.20;11.40;;;;;4.60;96305.00;;;;8261765;28;20541;-79
2022/11/14 06:18:52;;;;;;;23.10;11.33;;;;;4.50;96310.00;;;;8261957;28;20233;-79
2022/11/14 06:23:26;;;;;;;24.43;12.47;;;;;4.30;96325.00;;;;8263457;28;20226;-79
2022/11/14 06:28:05;;;;;;;24.63;12.00;;;;;4.00;96322.00;;;;8266305;28;20245;-79
2022/11/14 06:32:39;;;;;;;25.03;11.50;;;;;3.80;96330.00;;;;8267555;28;20224;-79
2022/11/14 06:37:15;;;;;;;25.40;12.13;;;;;3.70;96329.00;;;;8266384;28;20222;-79
2022/11/14 06:41:20;;;;;;;32.13;12.67;;;;;3.80;96333.00;;;;8266593;28;20221;-79
2022/11/14 06:45:56;;;;;;;27.00;12.33;;;;;3.90;96337.00;;;;8267405;28;20225;-79
2022/11/14 06:50:32;;;;;;;27.00;11.80;;;;;3.90;96350.00;;;;8267088;28;20217;-78
2022/11/14 06:55:09;;;;;;;29.77;11.97;;;;;3.90;96355.00;;;;8265954;28;20227;-78
2022/11/14 06:59:46;;;;;;;29.13;13.37;;;;;4.00;96359.00;;;;8267145;28;20220;-78
2022/11/14 07:04:25;;;;;;;27.60;12.33;;;;;4.00;96345.00;;;;8265744;28;20228;-78
2022/11/14 07:08:59;;;;;;;27.53;12.47;;;;;4.20;96339.00;;;;8266406;28;20233;-78
2022/11/14 07:13:34;;;;;;;26.97;12.70;;;;;4.50;96351.00;;;;8266613;28;20252;-78
2022/11/14 07:18:08;;;;;;;25.17;12.17;;;;;4.60;96346.00;;;;8265062;28;20280;-78
2022/11/14 07:22:12;;;;;;;24.60;11.53;;;;;4.60;96342.00;;;;8265863;28;20234;-80
2022/11/14 07:26:15;;;;;;;25.20;12.40;;;;;4.60;96340.00;;;;8265850;28;20217;-79
2022/11/14 07:30:18;;;;;;;25.27;12.57;;;;;4.60;96353.00;;;;8264172;28;20230;-81
2022/11/14 07:34:55;;;;;;;24.97;12.63;;;;;4.60;96343.00;;;;8265712;28;20258;-79
2022/11/14 07:39:05;;;;;;;25.97;12.37;;;;;4.70;96342.00;;;;8264564;28;20222;-79
2022/11/14 07:43:39;;;;;;;26.00;12.23;;;;;4.70;96335.00;;;;8265495;28;20250;-78
2022/11/14 07:48:16;;;;;;;26.07;12.73;;;;;4.90;96348.00;;;;8265139;28;20234;-78
2022/11/14 07:52:53;;;;;;;25.23;12.93;;;;;5.10;96332.00;;;;8264582;28;20218;-80
2022/11/14 07:57:31;;;;;;;27.67;12.73;;;;;5.30;96350.00;;;;8263583;28;20222;-79
2022/11/14 08:02:09;;;;;;;28.30;13.00;;;;;5.60;96343.00;;;;8264878;28;20707;-79
2022/11/14 08:06:43;;;;;;;23.80;12.07;;;;;5.90;96327.00;;;;8263998;28;20650;-79
2022/11/14 08:11:46;;;;;;;28.53;13.20;;;;;6.20;96335.00;;;;8263494;28;20249;-79
2022/11/14 08:15:55;;;;;;;29.40;13.37;;;;;6.40;96323.00;;;;8264562;28;20225;-79
2022/11/14 08:19:58;;;;;;;25.97;12.57;;;;;6.50;96327.00;;;;8263328;28;20273;-79
2022/11/14 08:24:32;;;;;;;21.63;11.73;;;;;6.60;96315.00;;;;8263812;28;20683;-79
2022/11/14 08:29:08;;;;;;;25.23;11.47;;;;;6.90;96319.00;;;;8263439;28;20648;-79
2022/11/14 08:33:48;;;;;;;23.50;11.83;;;;;7.30;96313.00;;;;8262957;28;20246;-81
2022/11/14 08:38:22;;;;;;;18.77;10.77;;;;;7.60;96329.00;;;;8261750;28;20325;-83
2022/11/14 08:42:25;;;;;;;22.37;12.33;;;;;7.90;96327.00;;;;8263951;28;20253;-82
2022/11/14 08:46:28;;;;;;;23.87;12.53;;;;;8.10;96325.00;;;;8261929;28;20276;-82
2022/11/14 08:51:04;;;;;;;20.47;12.07;;;;;8.10;96322.00;;;;8263186;28;20230;-83
2022/11/14 08:55:43;;;;;;;19.13;10.97;;;;;8.40;96329.00;;;;8254691;28;20262;-83
2022/11/14 09:00:15;;;;;;;16.47;8.83;;;;;8.60;96324.00;;;;8262274;28;20227;-84
2022/11/14 09:04:18;;;;;;;19.37;10.33;;;;;8.80;96320.00;;;;8256198;28;20776;-83
2022/11/14 09:08:23;;;;;;;19.80;10.00;;;;;9.00;96317.00;;;;8257794;28;20235;-83
2022/11/14 09:12:37;;;;;;;15.33;9.00;;;;;9.20;96313.00;;;;8260718;28;20222;-83
2022/11/14 09:17:14;;;;;;;15.95;9.05;;;;;9.30;96318.00;;;;8261759;28;20557;-81
2022/11/14 09:21:17;;;;;;;16.73;9.02;;;;;9.50;96323.00;;;;8261453;28;20715;-81
2022/11/14 09:25:56;;;;;;;13.43;8.48;;;;;9.60;96328.00;;;;8261492;28;20218;-80
2022/11/14 09:30:33;;;;;;;15.70;9.25;;;;;9.70;96345.00;;;;8262373;28;20250;-80
2022/11/14 09:34:41;;;;;;;14.23;8.18;;;;;9.80;96350.00;;;;8260579;28;20232;-81
2022/11/14 09:39:13;;;;;;;16.20;8.85;;;;;9.90;96344.00;;;;8259571;28;20362;-81
2022/11/14 09:44:03;;;;;;;16.35;9.18;;;;;9.90;96341.00;;;;8262383;28;20247;-78
2022/11/14 09:48:30;;;;;;;13.85;8.30;;;;;10.10;96347.00;;;;8260886;28;20670;-83
2022/11/14 09:53:03;;;;;;;14.15;8.25;;;;;10.20;96338.00;;;;8261572;28;20224;-83
2022/11/14 09:57:37;;;;;;;14.77;8.20;;;;;10.30;96336.00;;;;8265402;28;20211;-83
2022/11/14 10:02:20;;;;;;;12.85;7.97;;;;;10.50;96340.00;;;;8258197;28;20229;-84
2022/11/14 10:06:51;;;;;;;11.73;7.30;;;;;10.60;96349.00;;;;8267460;28;20310;-84
2022/11/14 10:11:33;;;;;;;12.25;7.43;;;;;10.90;96348.00;;;;8267088;28;20218;-83
2022/11/14 10:16:07;;;;;;;14.95;7.97;;;;;11.00;96349.00;;;;8269263;28;20221;-84
2022/11/14 10:20:41;;;;;;;14.38;7.53;;;;;11.20;96353.00;;;;8268681;28;20254;-82
2022/11/14 10:25:13;;;;;;;16.73;7.85;;;;;11.40;96338.00;;;;8267505;28;20261;-83
2022/11/14 10:29:44;;;;;;;12.13;7.53;;;;;11.50;96339.00;;;;8266842;28;20226;-82
2022/11/14 10:34:25;;;;;;;13.23;7.78;;;;;11.70;96347.00;;;;8267690;28;20270;-81
2022/11/14 10:38:35;;;;;;;9.32;6.80;;;;;11.80;96343.00;;;;8265573;28;20223;-81
2022/11/14 10:43:07;;;;;;;11.43;7.05;;;;;12.00;96356.00;;;;8266727;28;20735;-81
2022/11/14 10:47:40;;;;;;;11.27;7.05;;;;;12.10;96355.00;;;;8267079;28;20217;-81
2022/11/14 10:52:16;;;;;;;9.57;6.32;;;;;12.30;96365.00;;;;8265860;28;20218;-81
2022/11/14 10:56:51;;;;;;;12.63;6.63;;;;;12.50;96360.00;;;;8265764;28;20655;-80
2022/11/14 11:01:31;;;;;;;8.88;5.68;;;;;12.70;96352.00;;;;8266169;28;20225;-80
2022/11/14 11:06:24;;;;;;;11.60;6.47;;;;;12.80;96353.00;;;;8266074;28;20241;-80
2022/11/14 11:15:15;;;;;;;9.43;6.28;;;;;13.00;96362.00;;;;8266470;28;20222;-81
2022/11/14 11:19:24;;;;;;;11.63;7.30;;;;;13.20;96355.00;;;;8265016;28;20648;-81
2022/11/14 11:23:57;;;;;;;10.07;6.40;;;;;13.20;96355.00;;;;8265446;28;20231;-81
2022/11/14 11:28:31;;;;;;;7.78;5.78;;;;;13.30;96351.00;;;;8265326;28;20226;-81
2022/11/14 11:33:05;;;;;;;7.85;5.53;;;;;13.50;96348.00;;;;8265743;28;20338;-81
2022/11/14 11:37:21;;;;;;;10.45;5.82;;;;;13.70;96343.00;;;;8265067;28;20218;-81
2022/11/14 11:41:30;;;;;;;8.10;6.15;;;;;13.80;96338.00;;;;8263636;28;20218;-81
2022/11/14 11:46:34;;;;;;;8.10;5.82;;;;;13.80;96338.00;;;;8264466;28;20223;-79
2022/11/14 11:51:06;;;;;;;10.15;6.05;;;;;13.80;96337.00;;;;8265071;28;20226;-80
2022/11/14 11:55:44;;;;;;;7.90;5.45;;;;;13.90;96334.00;;;;8264524;28;20272;-80
2022/11/14 12:00:20;;;;;;;9.73;6.15;;;;;13.90;96326.00;;;;8262541;28;20226;-81
2022/11/14 12:04:55;;;;;;;7.95;5.90;;;;;14.00;96333.00;;;;8263670;28;20227;-81
2022/11/14 12:09:33;;;;;;;8.35;6.00;;;;;14.10;96344.00;;;;8263170;28;20225;-79
2022/11/14 12:14:44;;;;;;;9.07;6.07;;;;;14.20;96343.00;;;;8263834;28;20218;-80
2022/11/14 12:19:08;;;;;;;9.90;6.25;;;;;14.10;96353.00;;;;8256938;28;20218;-81
2022/11/14 12:23:54;;;;;;;7.65;5.65;;;;;14.00;96356.00;;;;8264906;28;20233;-79
2022/11/14 12:28:34;;;;;;;7.85;5.38;;;;;14.00;96355.00;;;;8262777;28;20358;-81
2022/11/14 12:32:47;;;;;;;7.88;5.10;;;;;13.90;96366.00;;;;8264125;28;20607;-81
2022/11/14 12:37:22;;;;;;;6.78;4.85;;;;;14.00;96362.00;;;;8263380;28;20214;-80
2022/11/14 12:42:04;;;;;;;8.02;5.88;;;;;14.10;96367.00;;;;8260575;28;20326;-78
2022/11/14 12:46:53;;;;;;;11.20;5.72;;;;;14.20;96365.00;;;;8262890;28;20222;-78
2022/11/14 12:50:58;;;;;;;6.65;4.93;;;;;14.20;96368.00;;;;8130684;29;20233;-79
2022/11/14 12:55:40;;;;;;;9.35;5.72;;;;;14.20;96370.00;;;;8245581;28;20241;-78
2022/11/14 13:00:17;;;;;;;6.05;4.03;;;;;14.10;96366.00;;;;8262084;28;20603;-78
2022/11/14 13:05:00;;;;;;;4.85;4.13;;;;;14.00;96370.00;;;;8262337;28;20260;-79
2022/11/14 13:09:32;;;;;;;7.70;4.53;;;;;13.90;96376.00;;;;8261874;28;20214;-79
2022/11/14 13:23:04;;;;;;;7.03;4.57;;;;;14.10;96370.00;;;;8262366;28;20222;-80
2022/11/14 13:27:38;;;;;;;9.30;4.60;;;;;14.10;96368.00;;;;8258471;28;20214;-80
2022/11/14 13:32:33;;;;;;;6.72;4.57;;;;;14.20;96377.00;;;;8266076;28;20222;-80
2022/11/14 13:37:28;;;;;;;7.47;4.78;;;;;14.10;96376.00;;;;8267897;28;20223;-80
2022/11/14 13:42:10;;;;;;;7.80;4.85;;;;;14.00;96380.00;;;;8268157;28;20636;-79
2022/11/14 13:46:26;;;;;;;9.90;5.95;;;;;14.00;96381.00;;;;8268327;28;20218;-79
2022/11/14 13:50:51;;;;;;;7.45;5.40;;;;;14.00;96376.00;;;;8268579;28;20223;-79
2022/11/14 13:54:55;;;;;;;6.03;4.85;;;;;13.90;96368.00;;;;8268122;28;20628;-79
2022/11/14 13:59:45;;;;;;;6.00;4.55;;;;;13.90;96364.00;;;;8267929;28;20230;-80
2022/11/14 14:04:29;;;;;;;8.60;5.55;;;;;13.70;96368.00;;;;8267223;28;20673;-79
2022/11/14 14:09:07;;;;;;;5.70;4.25;;;;;13.70;96366.00;;;;8267510;28;20698;-78
2022/11/14 14:13:46;;;;;;;5.35;4.35;;;;;13.70;96358.00;;;;8268237;28;20226;-78
2022/11/14 14:18:25;;;;;;;7.20;4.72;;;;;13.60;96365.00;;;;8266328;28;20289;-78
2022/11/14 14:22:56;;;;;;;6.80;4.68;;;;;13.50;96362.00;;;;8267413;28;20237;-79
2022/11/14 14:27:11;;;;;;;7.25;4.47;;;;;13.60;96365.00;;;;8267845;28;20244;-79
2022/11/14 14:31:18;;;;;;;5.70;4.18;;;;;13.60;96355.00;;;;8267008;28;20230;-78
2022/11/14 14:35:51;;;;;;;5.07;4.47;;;;;13.50;96347.00;;;;8267169;28;20530;-78
2022/11/14 14:39:59;;;;;;;6.40;4.57;;;;;13.50;96352.00;;;;8266488;28;20311;-79
2022/11/14 14:44:02;;;;;;;5.03;4.53;;;;;13.40;96341.00;;;;8264233;28;20222;-79
2022/11/14 14:48:40;;;;;;;7.63;4.80;;;;;13.30;96340.00;;;;8266652;28;20572;-79
2022/11/14 14:53:22;;;;;;;5.05;4.55;;;;;13.10;96340.00;;;;8266194;28;20310;-79
2022/11/14 14:57:52;;;;;;;6.63;4.45;;;;;12.90;96331.00;;;;8270282;28;20601;-81
2022/11/14 15:02:29;;;;;;;7.93;4.65;;;;;12.70;96336.00;;;;8262087;28;20233;-81
2022/11/14 15:07:06;;;;;;;4.85;4.13;;;;;12.40;96341.00;;;;8265609;28;20246;-82
2022/11/14 15:11:46;;;;;;;7.68;4.57;;;;;12.00;96340.00;;;;8266754;28;20250;-81
2022/11/14 15:16:20;;;;;;;6.35;5.15;;;;;11.60;96324.00;;;;8265165;28;20224;-78
2022/11/14 15:20:26;;;;;;;6.95;5.05;;;;;11.20;96319.00;;;;8259562;28;20221;-78
2022/11/14 15:24:30;;;;;;;9.23;5.25;;;;;10.80;96317.00;;;;8265444;28;20667;-79
2022/11/14 15:29:15;;;;;;;8.63;5.22;;;;;10.40;96313.00;;;;8264976;28;20299;-79
2022/11/14 15:33:28;;;;;;;13.10;7.20;;;;;10.00;96320.00;;;;8264825;28;20308;-79
2022/11/14 15:38:03;;;;;;;12.80;6.75;;;;;9.70;96319.00;;;;8266709;28;20258;-79
2022/11/14 15:42:38;;;;;;;17.83;8.57;;;;;9.50;96316.00;;;;8261403;28;20269;-79
2022/11/14 15:46:49;;;;;;;23.23;10.85;;;;;9.20;96327.00;;;;8264892;28;20222;-79
2022/11/14 15:50:52;;;;;;;16.13;8.57;;;;;9.00;96312.00;;;;8262783;28;20250;-79
2022/11/14 15:54:56;;;;;;;21.98;10.02;;;;;8.70;96318.00;;;;8263755;28;20265;-80
2022/11/14 15:59:33;;;;;;;17.23;9.90;;;;;8.50;96318.00;;;;8265863;28;20222;-80
2022/11/14 16:03:38;;;;;;;19.60;9.67;;;;;8.40;96317.00;;;;8263740;28;20301;-80
2022/11/14 16:07:41;;;;;;;21.77;10.10;;;;;8.30;96309.00;;;;8264797;28;20556;-81
2022/11/14 16:12:18;;;;;;;17.67;9.63;;;;;8.10;96317.00;;;;8262808;28;20223;-80
2022/11/14 16:16:23;;;;;;;16.83;8.90;;;;;8.00;96315.00;;;;8262795;28;20223;-80
2022/11/14 16:20:31;;;;;;;19.63;10.43;;;;;7.90;96303.00;;;;8261339;28;20230;-81
2022/11/14 16:25:02;;;;;;;13.93;8.53;;;;;7.70;96307.00;;;;8261871;28;20683;-80
2022/11/14 16:29:39;;;;;;;16.37;7.67;;;;;7.50;96302.00;;;;8262643;28;20242;-81
2022/11/14 16:34:19;;;;;;;17.77;8.20;;;;;7.40;96302.00;;;;8262411;28;20226;-79
2022/11/14 16:38:58;;;;;;;17.13;9.57;;;;;7.30;96295.00;;;;8261857;28;20230;-80
2022/11/14 16:43:02;;;;;;;16.63;7.50;;;;;7.20;96304.00;;;;8260881;28;20225;-80
2022/11/14 16:47:08;;;;;;;16.15;8.00;;;;;7.20;96306.00;;;;8259300;28;20358;-79
2022/11/14 16:51:40;;;;;;;16.83;7.63;;;;;7.20;96295.00;;;;8253830;28;20604;-79
2022/11/14 16:56:16;;;;;;;14.57;7.23;;;;;7.00;96301.00;;;;8259403;28;20232;-79
2022/11/14 17:00:50;;;;;;;14.50;8.10;;;;;6.90;96302.00;;;;8261591;28;20607;-80
2022/11/14 17:05:27;;;;;;;14.77;8.63;;;;;6.90;96306.00;;;;8261060;28;20273;-77
2022/11/14 17:10:04;;;;;;;16.47;8.43;;;;;6.80;96317.00;;;;8260646;28;20223;-79
2022/11/14 17:14:28;;;;;;;15.00;8.10;;;;;6.70;96312.00;;;;8259866;28;20233;-78
2022/11/14 17:19:02;;;;;;;17.07;8.87;;;;;6.50;96309.00;;;;8262696;28;20226;-80
2022/11/14 17:23:39;;;;;;;17.77;9.23;;;;;6.40;96314.00;;;;8261569;28;20277;-79
2022/11/14 17:28:15;;;;;;;17.97;9.47;;;;;6.30;96309.00;;;;8261346;28;20265;-80
2022/11/14 17:32:54;;;;;;;19.60;9.93;;;;;6.30;96306.00;;;;8258700;28;20274;-79
2022/11/14 17:37:29;;;;;;;14.83;8.83;;;;;6.20;96308.00;;;;8261745;28;20682;-80
2022/11/14 17:42:06;;;;;;;16.47;9.13;;;;;6.10;96303.00;;;;8260346;28;20228;-79
2022/11/14 17:46:12;;;;;;;16.90;8.90;;;;;6.10;96303.00;;;;8261947;28;20226;-79
2022/11/14 17:50:47;;;;;;;24.70;10.57;;;;;6.00;96297.00;;;;8262263;28;20223;-79
2022/11/14 17:54:50;;;;;;;22.30;9.73;;;;;5.90;96297.00;;;;8260680;28;20644;-80
2022/11/14 17:58:54;;;;;;;18.00;10.43;;;;;5.80;96296.00;;;;8261644;28;20218;-80
2022/11/14 18:02:57;;;;;;;18.63;10.03;;;;;5.80;96298.00;;;;8250943;28;20625;-80
2022/11/14 18:07:33;;;;;;;27.03;12.87;;;;;5.80;96291.00;;;;8268890;28;20269;-79
2022/11/14 18:12:12;;;;;;;19.53;11.33;;;;;5.90;96290.00;;;;8260814;28;20234;-80
2022/11/14 18:16:17;;;;;;;21.90;11.27;;;;;5.90;96299.00;;;;8262825;28;20633;-82
2022/11/14 18:20:20;;;;;;;21.90;12.10;;;;;5.90;96298.00;;;;8263442;28;20278;-80
2022/11/14 18:24:58;;;;;;;28.73;12.60;;;;;5.90;96303.00;;;;8266651;28;20219;-80
2022/11/14 18:29:35;;;;;;;26.87;12.67;;;;;5.80;96302.00;;;;8267175;28;20301;-80
2022/11/14 18:34:09;;;;;;;26.70;12.00;;;;;5.70;96309.00;;;;8267617;28;20226;-80
2022/11/14 18:38:46;;;;;;;29.93;13.53;;;;;5.60;96308.00;;;;8266436;28;20214;-80
2022/11/14 18:43:23;;;;;;;29.73;11.70;;;;;5.50;96316.00;;;;8249839;28;20667;-80
2022/11/14 18:47:29;;;;;;;165.90;62.17;;;;;5.50;96316.00;;;;8266723;28;20219;-81
2022/11/14 18:52:03;;;;;;;34.53;15.43;;;;;5.50;96311.00;;;;8265514;28;20223;-78
2022/11/14 18:56:41;;;;;;;24.57;12.87;;;;;5.30;96301.00;;;;8265891;28;20660;-78
2022/11/14 19:01:17;;;;;;;20.70;10.60;;;;;5.20;96305.00;;;;8266630;28;20268;-78
2022/11/14 19:05:52;;;;;;;22.27;11.47;;;;;5.20;96308.00;;;;8264990;28;20217;-78
2022/11/14 19:10:26;;;;;;;22.50;11.40;;;;;5.30;96308.00;;;;8265347;28;20218;-82
2022/11/14 19:15:03;;;;;;;24.27;10.27;;;;;5.30;96307.00;;;;8265835;28;20648;-79
2022/11/14 19:19:40;;;;;;;23.00;11.17;;;;;5.30;96310.00;;;;8265555;28;20222;-79
2022/11/14 19:24:18;;;;;;;22.50;12.00;;;;;5.40;96314.00;;;;8265030;28;20234;-79
2022/11/14 19:28:52;;;;;;;25.37;12.73;;;;;5.40;96320.00;;;;8264800;28;20260;-79
2022/11/14 19:33:29;;;;;;;28.17;13.27;;;;;5.40;96323.00;;;;8265782;28;20549;-79
2022/11/14 19:38:07;;;;;;;23.80;11.30;;;;;5.40;96326.00;;;;8265054;28;20229;-80
2022/11/14 19:42:42;;;;;;;21.93;10.73;;;;;5.40;96321.00;;;;8256136;28;20228;-81
2022/11/14 19:47:16;;;;;;;19.30;10.30;;;;;5.40;96335.00;;;;8264652;28;20222;-79
2022/11/14 19:51:21;;;;;;;15.27;8.93;;;;;5.30;96327.00;;;;8264425;28;20234;-81
2022/11/14 19:55:55;;;;;;;22.43;11.07;;;;;5.20;96320.00;;;;8264106;28;20343;-79
2022/11/14 19:59:59;;;;;;;16.73;9.20;;;;;5.30;96320.00;;;;8264390;28;20222;-78
2022/11/14 20:04:33;;;;;;;22.57;11.60;;;;;5.30;96324.00;;;;8264308;28;20351;-78
2022/11/14 20:09:08;;;;;;;21.23;10.73;;;;;5.40;96317.00;;;;8263387;28;20230;-78
2022/11/14 20:13:45;;;;;;;17.73;9.53;;;;;5.40;96320.00;;;;8263826;28;20644;-78
2022/11/14 20:18:21;;;;;;;20.37;10.53;;;;;5.40;96324.00;;;;8264590;28;20635;-79
2022/11/14 20:22:26;;;;;;;20.30;8.20;;;;;5.40;96318.00;;;;8263190;28;20337;-78
2022/11/14 20:27:03;;;;;;;21.53;10.07;;;;;5.50;96318.00;;;;8262767;28;20237;-78
2022/11/14 20:31:40;;;;;;;16.60;9.53;;;;;5.50;96313.00;;;;8263755;28;20219;-80
2022/11/14 20:36:17;;;;;;;14.97;8.77;;;;;5.50;96311.00;;;;8262304;28;20276;-78
2022/11/14 20:40:56;;;;;;;22.57;9.93;;;;;5.40;96306.00;;;;8255176;28;20269;-78
2022/11/14 20:45:00;;;;;;;18.57;9.53;;;;;5.30;96310.00;;;;8263984;28;20596;-79
2022/11/14 20:49:03;;;;;;;22.77;10.90;;;;;5.30;96312.00;;;;8262794;28;20293;-81
2022/11/14 20:53:40;;;;;;;17.73;9.03;;;;;5.20;96310.00;;;;8262110;28;20229;-78
2022/11/14 20:57:44;;;;;;;17.87;9.33;;;;;5.10;96307.00;;;;8263310;28;20249;-79
2022/11/14 21:02:21;;;;;;;19.53;10.20;;;;;4.90;96321.00;;;;8262315;28;20237;-79
2022/11/14 21:06:24;;;;;;;23.43;10.67;;;;;4.80;96321.00;;;;8262495;28;20521;-79
2022/11/14 21:11:04;;;;;;;17.73;9.33;;;;;4.70;96309.00;;;;8262730;28;20230;-79
2022/11/14 21:15:09;;;;;;;18.43;9.33;;;;;4.60;96304.00;;;;8262637;28;20266;-79
2022/11/14 21:19:12;;;;;;;22.90;10.60;;;;;4.50;96305.00;;;;8261461;28;20223;-80
2022/11/14 21:23:15;;;;;;;19.10;9.87;;;;;4.40;96312.00;;;;8262953;28;20229;-80
2022/11/14 21:27:18;;;;;;;23.20;10.03;;;;;4.40;96306.00;;;;8261729;28;20556;-79
2022/11/14 21:31:57;;;;;;;19.67;9.67;;;;;4.30;96293.00;;;;8262286;28;20229;-79
2022/11/14 21:36:00;;;;;;;14.23;8.67;;;;;4.30;96298.00;;;;8261467;28;20283;-80
2022/11/14 21:40:38;;;;;;;22.67;11.13;;;;;4.30;96291.00;;;;8261974;28;20228;-80
2022/11/14 21:44:41;;;;;;;17.00;8.50;;;;;4.30;96281.00;;;;8261163;28;20218;-80
2022/11/14 21:49:20;;;;;;;19.43;9.47;;;;;4.20;96292.00;;;;8263103;28;20686;-81
2022/11/14 21:53:23;;;;;;;25.87;11.17;;;;;4.30;96287.00;;;;8264947;28;20656;-81
2022/11/14 21:57:26;;;;;;;23.33;10.80;;;;;4.30;96285.00;;;;8268244;28;20239;-81
2022/11/14 22:06:26;;;;;;;22.23;9.97;;;;;4.30;96277.00;;;;8267709;28;20210;-80
2022/11/14 22:10:30;;;;;;;24.50;11.27;;;;;4.30;96275.00;;;;8267301;28;20241;-80